sensor_id;sensor_type;location;lat;lon;timestamp;P1;durP1;ratioP1;P2;durP2;ratioP2
15246;SDS011;7726;48.820;9.248;2022-07-19T00:02:26;4.43;;;3.15;;
15246;SDS011;7726;48.820;9.248;2022-07-19T00:04:53;5.63;;;3.50;;
15246;SDS011;7726;48.820;9.248;2022-07-19T00:07:22;4.40;;;3.00;;
15246;SDS011;7726;48.820;9.248;2022-07-19T00:09:49;5.60;;;3.15;;
15246;SDS011;7726;48.820;9.248;2022-07-19T00:12:16;3.55;;;3.00;;
15246;SDS011;7726;48.820;9.248;2022-07-19T00:14:43;4.57;;;3.50;;
15246;SDS011;7726;48.820;9.248;2022-07-19T00:17:10;7.20;;;3.00;;
15246;SDS011;7726;48.820;9.248;2022-07-19T00:19:37;3.40;;;3.10;;
15246;SDS011;7726;48.820;9.248;2022-07-19T00:22:05;3.45;;;3.15;;
15246;SDS011;7726;48.820;9.248;2022-07-19T00:24:33;4.30;;;3.10;;
15246;SDS011;7726;48.820;9.248;2022-07-19T00:27:01;2.80;;;2.60;;
15246;SDS011;7726;48.820;9.248;2022-07-19T00:29:28;4.65;;;3.03;;
15246;SDS011;7726;48.820;9.248;2022-07-19T00:31:55;3.28;;;2.65;;
15246;SDS011;7726;48.820;9.248;2022-07-19T00:34:22;3.38;;;2.90;;
15246;SDS011;7726;48.820;9.248;2022-07-19T00:36:49;3.97;;;3.08;;
15246;SDS011;7726;48.820;9.248;2022-07-19T00:39:16;3.13;;;2.88;;
15246;SDS011;7726;48.820;9.248;2022-07-19T00:41:45;2.97;;;2.63;;
15246;SDS011;7726;48.820;9.248;2022-07-19T00:44:12;4.28;;;2.85;;
15246;SDS011;7726;48.820;9.248;2022-07-19T00:46:39;3.13;;;2.83;;
15246;SDS011;7726;48.820;9.248;2022-07-19T00:49:07;3.70;;;2.88;;
15246;SDS011;7726;48.820;9.248;2022-07-19T00:51:34;4.82;;;2.88;;
15246;SDS011;7726;48.820;9.248;2022-07-19T00:54:02;4.20;;;3.03;;
15246;SDS011;7726;48.820;9.248;2022-07-19T00:56:31;3.78;;;3.03;;
15246;SDS011;7726;48.820;9.248;2022-07-19T00:59:00;4.40;;;3.13;;
15246;SDS011;7726;48.820;9.248;2022-07-19T01:01:29;6.50;;;3.20;;
15246;SDS011;7726;48.820;9.248;2022-07-19T01:03:56;3.13;;;2.83;;
15246;SDS011;7726;48.820;9.248;2022-07-19T01:06:23;3.63;;;2.95;;
15246;SDS011;7726;48.820;9.248;2022-07-19T01:08:51;4.07;;;3.13;;
15246;SDS011;7726;48.820;9.248;2022-07-19T01:11:18;3.28;;;2.97;;
15246;SDS011;7726;48.820;9.248;2022-07-19T01:13:45;3.95;;;3.55;;
15246;SDS011;7726;48.820;9.248;2022-07-19T01:16:14;3.70;;;3.03;;
15246;SDS011;7726;48.820;9.248;2022-07-19T01:18:42;6.57;;;3.05;;
15246;SDS011;7726;48.820;9.248;2022-07-19T01:21:14;3.97;;;3.47;;
15246;SDS011;7726;48.820;9.248;2022-07-19T01:23:42;3.63;;;3.17;;
15246;SDS011;7726;48.820;9.248;2022-07-19T01:26:09;3.90;;;3.00;;
15246;SDS011;7726;48.820;9.248;2022-07-19T01:28:36;5.05;;;2.97;;
15246;SDS011;7726;48.820;9.248;2022-07-19T01:31:04;3.58;;;2.50;;
15246;SDS011;7726;48.820;9.248;2022-07-19T01:33:31;3.00;;;2.72;;
15246;SDS011;7726;48.820;9.248;2022-07-19T01:35:58;7.05;;;3.08;;
15246;SDS011;7726;48.820;9.248;2022-07-19T01:38:27;4.88;;;3.08;;
15246;SDS011;7726;48.820;9.248;2022-07-19T01:40:54;5.50;;;2.92;;
15246;SDS011;7726;48.820;9.248;2022-07-19T01:43:21;5.07;;;3.08;;
15246;SDS011;7726;48.820;9.248;2022-07-19T01:45:48;6.05;;;3.20;;
15246;SDS011;7726;48.820;9.248;2022-07-19T01:48:15;3.22;;;2.92;;
15246;SDS011;7726;48.820;9.248;2022-07-19T01:50:43;3.80;;;2.90;;
15246;SDS011;7726;48.820;9.248;2022-07-19T01:53:10;3.30;;;3.00;;
15246;SDS011;7726;48.820;9.248;2022-07-19T01:55:38;3.72;;;3.15;;
15246;SDS011;7726;48.820;9.248;2022-07-19T01:58:05;3.30;;;3.00;;
15246;SDS011;7726;48.820;9.248;2022-07-19T02:00:32;3.70;;;3.40;;
15246;SDS011;7726;48.820;9.248;2022-07-19T02:03:00;3.17;;;2.83;;
15246;SDS011;7726;48.820;9.248;2022-07-19T02:05:27;3.00;;;2.70;;
15246;SDS011;7726;48.820;9.248;2022-07-19T02:07:54;3.67;;;3.08;;
15246;SDS011;7726;48.820;9.248;2022-07-19T02:10:21;5.15;;;3.13;;
15246;SDS011;7726;48.820;9.248;2022-07-19T02:12:50;3.97;;;2.88;;
15246;SDS011;7726;48.820;9.248;2022-07-19T02:15:17;4.18;;;3.05;;
15246;SDS011;7726;48.820;9.248;2022-07-19T02:17:44;4.30;;;2.90;;
15246;SDS011;7726;48.820;9.248;2022-07-19T02:20:11;6.80;;;3.30;;
15246;SDS011;7726;48.820;9.248;2022-07-19T02:22:38;2.83;;;2.63;;
15246;SDS011;7726;48.820;9.248;2022-07-19T02:25:06;2.60;;;2.40;;
15246;SDS011;7726;48.820;9.248;2022-07-19T02:27:33;3.80;;;3.28;;
15246;SDS011;7726;48.820;9.248;2022-07-19T02:30:02;4.32;;;3.40;;
15246;SDS011;7726;48.820;9.248;2022-07-19T02:32:29;3.00;;;2.70;;
15246;SDS011;7726;48.820;9.248;2022-07-19T02:34:57;4.20;;;2.80;;
15246;SDS011;7726;48.820;9.248;2022-07-19T02:37:24;3.85;;;3.53;;
15246;SDS011;7726;48.820;9.248;2022-07-19T02:39:51;4.38;;;3.40;;
15246;SDS011;7726;48.820;9.248;2022-07-19T02:42:18;6.18;;;3.25;;
15246;SDS011;7726;48.820;9.248;2022-07-19T02:44:45;2.95;;;2.70;;
15246;SDS011;7726;48.820;9.248;2022-07-19T02:47:14;4.22;;;3.20;;
15246;SDS011;7726;48.820;9.248;2022-07-19T02:49:41;4.03;;;3.10;;
15246;SDS011;7726;48.820;9.248;2022-07-19T02:52:08;3.85;;;2.90;;
15246;SDS011;7726;48.820;9.248;2022-07-19T02:54:35;8.27;;;3.83;;
15246;SDS011;7726;48.820;9.248;2022-07-19T02:57:02;4.97;;;3.17;;
15246;SDS011;7726;48.820;9.248;2022-07-19T02:59:30;2.80;;;2.60;;
15246;SDS011;7726;48.820;9.248;2022-07-19T03:01:57;5.03;;;3.28;;
15246;SDS011;7726;48.820;9.248;2022-07-19T03:04:25;3.53;;;2.60;;
15246;SDS011;7726;48.820;9.248;2022-07-19T03:06:52;3.35;;;3.05;;
15246;SDS011;7726;48.820;9.248;2022-07-19T03:09:20;4.85;;;3.10;;
15246;SDS011;7726;48.820;9.248;2022-07-19T03:11:47;3.60;;;2.85;;
15246;SDS011;7726;48.820;9.248;2022-07-19T03:14:14;5.20;;;3.00;;
15246;SDS011;7726;48.820;9.248;2022-07-19T03:16:41;3.55;;;3.17;;
15246;SDS011;7726;48.820;9.248;2022-07-19T03:19:08;3.03;;;2.72;;
15246;SDS011;7726;48.820;9.248;2022-07-19T03:21:37;3.22;;;2.92;;
15246;SDS011;7726;48.820;9.248;2022-07-19T03:24:04;2.83;;;2.63;;
15246;SDS011;7726;48.820;9.248;2022-07-19T03:26:31;3.83;;;3.13;;
15246;SDS011;7726;48.820;9.248;2022-07-19T03:28:58;3.30;;;3.03;;
15246;SDS011;7726;48.820;9.248;2022-07-19T03:31:26;4.47;;;2.92;;
15246;SDS011;7726;48.820;9.248;2022-07-19T03:33:53;3.03;;;2.83;;
15246;SDS011;7726;48.820;9.248;2022-07-19T03:36:20;3.95;;;2.78;;
15246;SDS011;7726;48.820;9.248;2022-07-19T03:38:48;3.17;;;2.80;;
15246;SDS011;7726;48.820;9.248;2022-07-19T03:41:16;5.53;;;3.15;;
15246;SDS011;7726;48.820;9.248;2022-07-19T03:43:43;5.72;;;3.03;;
15246;SDS011;7726;48.820;9.248;2022-07-19T03:46:10;5.65;;;2.90;;
15246;SDS011;7726;48.820;9.248;2022-07-19T03:48:37;4.07;;;3.10;;
15246;SDS011;7726;48.820;9.248;2022-07-19T03:51:04;4.00;;;2.80;;
15246;SDS011;7726;48.820;9.248;2022-07-19T03:53:32;9.38;;;4.22;;
15246;SDS011;7726;48.820;9.248;2022-07-19T03:56:01;6.88;;;3.47;;
15246;SDS011;7726;48.820;9.248;2022-07-19T03:58:28;5.07;;;3.20;;
15246;SDS011;7726;48.820;9.248;2022-07-19T04:00:56;4.45;;;3.58;;
15246;SDS011;7726;48.820;9.248;2022-07-19T04:03:23;5.35;;;3.78;;
15246;SDS011;7726;48.820;9.248;2022-07-19T04:05:50;3.78;;;3.38;;
15246;SDS011;7726;48.820;9.248;2022-07-19T04:08:17;5.28;;;3.22;;
15246;SDS011;7726;48.820;9.248;2022-07-19T04:10:45;3.97;;;3.63;;
15246;SDS011;7726;48.820;9.248;2022-07-19T04:13:13;4.18;;;3.30;;
15246;SDS011;7726;48.820;9.248;2022-07-19T04:15:40;7.45;;;4.00;;
15246;SDS011;7726;48.820;9.248;2022-07-19T04:18:07;7.78;;;3.20;;
15246;SDS011;7726;48.820;9.248;2022-07-19T04:20:35;5.22;;;3.13;;
15246;SDS011;7726;48.820;9.248;2022-07-19T04:23:02;5.70;;;3.60;;
15246;SDS011;7726;48.820;9.248;2022-07-19T04:25:29;5.38;;;3.35;;
15246;SDS011;7726;48.820;9.248;2022-07-19T04:27:56;7.93;;;3.60;;
15246;SDS011;7726;48.820;9.248;2022-07-19T04:30:25;3.63;;;2.95;;
15246;SDS011;7726;48.820;9.248;2022-07-19T04:32:52;5.35;;;3.60;;
15246;SDS011;7726;48.820;9.248;2022-07-19T04:35:19;14.30;;;3.85;;
15246;SDS011;7726;48.820;9.248;2022-07-19T04:37:46;7.00;;;3.60;;
15246;SDS011;7726;48.820;9.248;2022-07-19T04:40:13;7.32;;;3.95;;
15246;SDS011;7726;48.820;9.248;2022-07-19T04:42:40;7.90;;;3.50;;
15246;SDS011;7726;48.820;9.248;2022-07-19T04:45:08;9.07;;;3.80;;
15246;SDS011;7726;48.820;9.248;2022-07-19T04:47:37;5.53;;;3.28;;
15246;SDS011;7726;48.820;9.248;2022-07-19T04:50:05;7.97;;;3.20;;
15246;SDS011;7726;48.820;9.248;2022-07-19T04:52:32;8.15;;;3.42;;
15246;SDS011;7726;48.820;9.248;2022-07-19T04:54:59;7.32;;;3.42;;
15246;SDS011;7726;48.820;9.248;2022-07-19T04:57:26;5.00;;;3.53;;
15246;SDS011;7726;48.820;9.248;2022-07-19T04:59:53;7.10;;;3.40;;
15246;SDS011;7726;48.820;9.248;2022-07-19T05:02:21;7.85;;;3.35;;
15246;SDS011;7726;48.820;9.248;2022-07-19T05:04:49;4.55;;;3.35;;
15246;SDS011;7726;48.820;9.248;2022-07-19T05:07:16;7.70;;;3.42;;
15246;SDS011;7726;48.820;9.248;2022-07-19T05:09:44;4.50;;;3.25;;
15246;SDS011;7726;48.820;9.248;2022-07-19T05:12:11;3.75;;;3.17;;
15246;SDS011;7726;48.820;9.248;2022-07-19T05:14:38;3.35;;;2.88;;
15246;SDS011;7726;48.820;9.248;2022-07-19T05:17:05;4.13;;;2.92;;
15246;SDS011;7726;48.820;9.248;2022-07-19T05:19:32;4.22;;;3.17;;
15246;SDS011;7726;48.820;9.248;2022-07-19T05:22:01;4.18;;;2.70;;
15246;SDS011;7726;48.820;9.248;2022-07-19T05:24:28;4.00;;;3.17;;
15246;SDS011;7726;48.820;9.248;2022-07-19T05:26:55;3.63;;;2.78;;
15246;SDS011;7726;48.820;9.248;2022-07-19T05:29:22;3.70;;;2.90;;
15246;SDS011;7726;48.820;9.248;2022-07-19T05:31:50;3.58;;;3.15;;
15246;SDS011;7726;48.820;9.248;2022-07-19T05:34:17;5.90;;;3.20;;
15246;SDS011;7726;48.820;9.248;2022-07-19T05:36:44;4.10;;;3.13;;
15246;SDS011;7726;48.820;9.248;2022-07-19T05:39:12;5.38;;;2.92;;
15246;SDS011;7726;48.820;9.248;2022-07-19T05:41:40;3.03;;;2.65;;
15246;SDS011;7726;48.820;9.248;2022-07-19T05:44:07;6.00;;;2.75;;
15246;SDS011;7726;48.820;9.248;2022-07-19T05:46:34;3.03;;;2.45;;
15246;SDS011;7726;48.820;9.248;2022-07-19T05:49:05;4.78;;;3.03;;
15246;SDS011;7726;48.820;9.248;2022-07-19T05:51:33;4.90;;;2.63;;
15246;SDS011;7726;48.820;9.248;2022-07-19T05:54:00;3.45;;;3.05;;
15246;SDS011;7726;48.820;9.248;2022-07-19T05:56:29;3.85;;;2.28;;
15246;SDS011;7726;48.820;9.248;2022-07-19T05:58:56;4.15;;;2.58;;
15246;SDS011;7726;48.820;9.248;2022-07-19T06:01:23;5.97;;;2.90;;
15246;SDS011;7726;48.820;9.248;2022-07-19T06:03:51;2.90;;;2.60;;
15246;SDS011;7726;48.820;9.248;2022-07-19T06:06:19;3.65;;;2.53;;
15246;SDS011;7726;48.820;9.248;2022-07-19T06:08:47;5.65;;;3.05;;
15246;SDS011;7726;48.820;9.248;2022-07-19T06:11:14;3.35;;;3.00;;
15246;SDS011;7726;48.820;9.248;2022-07-19T06:13:43;3.20;;;2.90;;
15246;SDS011;7726;48.820;9.248;2022-07-19T06:16:11;5.88;;;2.70;;
15246;SDS011;7726;48.820;9.248;2022-07-19T06:18:38;10.95;;;3.45;;
15246;SDS011;7726;48.820;9.248;2022-07-19T06:21:06;7.70;;;2.97;;
15246;SDS011;7726;48.820;9.248;2022-07-19T06:23:34;3.28;;;2.80;;
15246;SDS011;7726;48.820;9.248;2022-07-19T06:26:02;3.78;;;2.70;;
15246;SDS011;7726;48.820;9.248;2022-07-19T06:28:29;5.30;;;2.72;;
15246;SDS011;7726;48.820;9.248;2022-07-19T06:30:57;10.93;;;2.83;;
15246;SDS011;7726;48.820;9.248;2022-07-19T06:33:25;4.78;;;3.00;;
15246;SDS011;7726;48.820;9.248;2022-07-19T06:35:52;5.70;;;3.72;;
15246;SDS011;7726;48.820;9.248;2022-07-19T06:38:19;3.55;;;3.03;;
15246;SDS011;7726;48.820;9.248;2022-07-19T06:40:46;7.68;;;3.28;;
15246;SDS011;7726;48.820;9.248;2022-07-19T06:43:14;3.47;;;2.88;;
15246;SDS011;7726;48.820;9.248;2022-07-19T06:45:41;4.70;;;2.85;;
15246;SDS011;7726;48.820;9.248;2022-07-19T06:48:09;6.57;;;3.13;;
15246;SDS011;7726;48.820;9.248;2022-07-19T06:50:36;3.83;;;2.78;;
15246;SDS011;7726;48.820;9.248;2022-07-19T06:53:04;3.00;;;2.67;;
15246;SDS011;7726;48.820;9.248;2022-07-19T06:55:31;4.78;;;2.55;;
15246;SDS011;7726;48.820;9.248;2022-07-19T06:57:58;2.08;;;1.80;;
15246;SDS011;7726;48.820;9.248;2022-07-19T07:00:25;5.10;;;2.30;;
15246;SDS011;7726;48.820;9.248;2022-07-19T07:02:53;4.05;;;2.50;;
15246;SDS011;7726;48.820;9.248;2022-07-19T07:05:21;1.98;;;1.88;;
15246;SDS011;7726;48.820;9.248;2022-07-19T07:07:48;4.22;;;1.88;;
15246;SDS011;7726;48.820;9.248;2022-07-19T07:10:17;3.15;;;2.53;;
15246;SDS011;7726;48.820;9.248;2022-07-19T07:12:44;2.80;;;2.22;;
15246;SDS011;7726;48.820;9.248;2022-07-19T07:15:12;2.17;;;1.95;;
15246;SDS011;7726;48.820;9.248;2022-07-19T07:17:40;2.47;;;2.00;;
15246;SDS011;7726;48.820;9.248;2022-07-19T07:20:08;2.20;;;2.00;;
15246;SDS011;7726;48.820;9.248;2022-07-19T07:22:37;2.30;;;2.10;;
15246;SDS011;7726;48.820;9.248;2022-07-19T07:25:04;2.50;;;2.30;;
15246;SDS011;7726;48.820;9.248;2022-07-19T07:27:32;4.93;;;2.42;;
15246;SDS011;7726;48.820;9.248;2022-07-19T07:29:59;4.55;;;2.53;;
15246;SDS011;7726;48.820;9.248;2022-07-19T07:32:26;7.55;;;2.40;;
15246;SDS011;7726;48.820;9.248;2022-07-19T07:34:54;2.50;;;2.30;;
15246;SDS011;7726;48.820;9.248;2022-07-19T07:37:21;3.38;;;2.72;;
15246;SDS011;7726;48.820;9.248;2022-07-19T07:39:49;6.10;;;2.75;;
15246;SDS011;7726;48.820;9.248;2022-07-19T07:42:17;4.70;;;2.72;;
15246;SDS011;7726;48.820;9.248;2022-07-19T07:44:44;3.85;;;2.58;;
15246;SDS011;7726;48.820;9.248;2022-07-19T07:47:11;3.38;;;2.42;;
15246;SDS011;7726;48.820;9.248;2022-07-19T07:49:39;5.97;;;2.50;;
15246;SDS011;7726;48.820;9.248;2022-07-19T07:52:06;6.07;;;2.47;;
15246;SDS011;7726;48.820;9.248;2022-07-19T07:54:34;4.28;;;2.10;;
15246;SDS011;7726;48.820;9.248;2022-07-19T07:57:02;3.97;;;2.13;;
15246;SDS011;7726;48.820;9.248;2022-07-19T07:59:30;4.93;;;2.53;;
15246;SDS011;7726;48.820;9.248;2022-07-19T08:01:57;4.85;;;2.30;;
15246;SDS011;7726;48.820;9.248;2022-07-19T08:04:24;4.90;;;2.33;;
15246;SDS011;7726;48.820;9.248;2022-07-19T08:06:51;3.05;;;2.10;;
15246;SDS011;7726;48.820;9.248;2022-07-19T08:09:18;4.50;;;1.88;;
15246;SDS011;7726;48.820;9.248;2022-07-19T08:11:45;2.10;;;1.90;;
15246;SDS011;7726;48.820;9.248;2022-07-19T08:14:14;4.32;;;1.90;;
15246;SDS011;7726;48.820;9.248;2022-07-19T08:16:41;3.40;;;2.28;;
15246;SDS011;7726;48.820;9.248;2022-07-19T08:19:08;3.20;;;2.33;;
15246;SDS011;7726;48.820;9.248;2022-07-19T08:21:36;5.00;;;2.13;;
15246;SDS011;7726;48.820;9.248;2022-07-19T08:24:03;3.58;;;1.80;;
15246;SDS011;7726;48.820;9.248;2022-07-19T08:26:30;3.08;;;2.05;;
15246;SDS011;7726;48.820;9.248;2022-07-19T08:28:58;4.60;;;2.42;;
15246;SDS011;7726;48.820;9.248;2022-07-19T08:31:26;5.75;;;2.33;;
15246;SDS011;7726;48.820;9.248;2022-07-19T08:33:53;3.05;;;1.88;;
15246;SDS011;7726;48.820;9.248;2022-07-19T08:36:21;6.60;;;2.10;;
15246;SDS011;7726;48.820;9.248;2022-07-19T08:38:48;3.65;;;1.60;;
15246;SDS011;7726;48.820;9.248;2022-07-19T08:41:15;3.67;;;1.70;;
15246;SDS011;7726;48.820;9.248;2022-07-19T08:43:42;1.60;;;1.50;;
15246;SDS011;7726;48.820;9.248;2022-07-19T08:46:09;5.18;;;1.67;;
15246;SDS011;7726;48.820;9.248;2022-07-19T08:48:38;1.60;;;1.50;;
15246;SDS011;7726;48.820;9.248;2022-07-19T08:51:05;3.28;;;1.90;;
15246;SDS011;7726;48.820;9.248;2022-07-19T08:53:34;4.22;;;1.73;;
15246;SDS011;7726;48.820;9.248;2022-07-19T08:56:05;2.30;;;1.48;;
15246;SDS011;7726;48.820;9.248;2022-07-19T08:58:47;3.10;;;1.75;;
15246;SDS011;7726;48.820;9.248;2022-07-19T09:01:14;1.90;;;1.80;;
15246;SDS011;7726;48.820;9.248;2022-07-19T09:06:29;3.75;;;1.83;;
15246;SDS011;7726;48.820;9.248;2022-07-19T09:09:03;2.05;;;1.73;;
15246;SDS011;7726;48.820;9.248;2022-07-19T09:11:33;5.00;;;2.40;;
15246;SDS011;7726;48.820;9.248;2022-07-19T09:14:04;2.90;;;1.73;;
15246;SDS011;7726;48.820;9.248;2022-07-19T09:16:48;3.15;;;1.80;;
15246;SDS011;7726;48.820;9.248;2022-07-19T09:19:15;2.42;;;1.85;;
15246;SDS011;7726;48.820;9.248;2022-07-19T09:21:51;4.45;;;1.92;;
15246;SDS011;7726;48.820;9.248;2022-07-19T09:24:18;1.88;;;1.75;;
15246;SDS011;7726;48.820;9.248;2022-07-19T09:26:55;5.65;;;1.83;;
15246;SDS011;7726;48.820;9.248;2022-07-19T09:29:22;2.30;;;2.10;;
15246;SDS011;7726;48.820;9.248;2022-07-19T09:32:03;1.73;;;1.63;;
15246;SDS011;7726;48.820;9.248;2022-07-19T09:34:31;3.00;;;1.95;;
15246;SDS011;7726;48.820;9.248;2022-07-19T09:37:11;2.92;;;2.20;;
15246;SDS011;7726;48.820;9.248;2022-07-19T09:39:38;3.15;;;2.28;;
15246;SDS011;7726;48.820;9.248;2022-07-19T09:42:06;2.45;;;2.05;;
15246;SDS011;7726;48.820;9.248;2022-07-19T09:44:34;2.60;;;2.10;;
15246;SDS011;7726;48.820;9.248;2022-07-19T09:47:01;4.03;;;1.90;;
15246;SDS011;7726;48.820;9.248;2022-07-19T09:49:29;2.42;;;2.05;;
15246;SDS011;7726;48.820;9.248;2022-07-19T09:51:56;2.30;;;2.08;;
15246;SDS011;7726;48.820;9.248;2022-07-19T09:54:25;4.20;;;2.55;;
15246;SDS011;7726;48.820;9.248;2022-07-19T09:56:53;3.95;;;2.38;;
15246;SDS011;7726;48.820;9.248;2022-07-19T09:59:22;6.85;;;2.25;;
15246;SDS011;7726;48.820;9.248;2022-07-19T10:01:51;3.65;;;2.25;;
15246;SDS011;7726;48.820;9.248;2022-07-19T10:04:19;3.97;;;2.47;;
15246;SDS011;7726;48.820;9.248;2022-07-19T10:06:47;2.90;;;2.00;;
15246;SDS011;7726;48.820;9.248;2022-07-19T10:09:15;2.78;;;2.15;;
15246;SDS011;7726;48.820;9.248;2022-07-19T10:11:43;5.20;;;2.25;;
15246;SDS011;7726;48.820;9.248;2022-07-19T10:14:11;4.68;;;2.58;;
15246;SDS011;7726;48.820;9.248;2022-07-19T10:16:48;4.50;;;2.42;;
15246;SDS011;7726;48.820;9.248;2022-07-19T10:19:16;2.92;;;2.10;;
15246;SDS011;7726;48.820;9.248;2022-07-19T10:21:44;4.57;;;2.50;;
15246;SDS011;7726;48.820;9.248;2022-07-19T10:24:11;2.65;;;2.25;;
15246;SDS011;7726;48.820;9.248;2022-07-19T10:26:39;3.83;;;2.20;;
15246;SDS011;7726;48.820;9.248;2022-07-19T10:29:09;4.38;;;2.50;;
15246;SDS011;7726;48.820;9.248;2022-07-19T10:31:37;2.92;;;2.40;;
15246;SDS011;7726;48.820;9.248;2022-07-19T10:34:06;3.00;;;2.42;;
15246;SDS011;7726;48.820;9.248;2022-07-19T10:36:34;2.63;;;2.38;;
15246;SDS011;7726;48.820;9.248;2022-07-19T10:47:31;5.03;;;2.13;;
15246;SDS011;7726;48.820;9.248;2022-07-19T10:50:18;5.50;;;2.40;;
15246;SDS011;7726;48.820;9.248;2022-07-19T10:52:46;2.30;;;2.05;;
15246;SDS011;7726;48.820;9.248;2022-07-19T10:55:23;2.53;;;2.33;;
15246;SDS011;7726;48.820;9.248;2022-07-19T10:57:53;3.75;;;2.75;;
15246;SDS011;7726;48.820;9.248;2022-07-19T11:00:22;6.72;;;2.13;;
15246;SDS011;7726;48.820;9.248;2022-07-19T11:02:51;5.38;;;2.60;;
15246;SDS011;7726;48.820;9.248;2022-07-19T11:05:22;2.10;;;2.00;;
15246;SDS011;7726;48.820;9.248;2022-07-19T11:07:49;3.58;;;2.28;;
15246;SDS011;7726;48.820;9.248;2022-07-19T11:10:20;2.75;;;2.25;;
15246;SDS011;7726;48.820;9.248;2022-07-19T11:12:48;5.50;;;2.58;;
15246;SDS011;7726;48.820;9.248;2022-07-19T11:15:15;3.00;;;2.30;;
15246;SDS011;7726;48.820;9.248;2022-07-19T11:17:54;3.22;;;2.40;;
15246;SDS011;7726;48.820;9.248;2022-07-19T11:20:23;2.50;;;2.30;;
15246;SDS011;7726;48.820;9.248;2022-07-19T11:22:50;2.53;;;2.33;;
15246;SDS011;7726;48.820;9.248;2022-07-19T11:25:23;3.92;;;2.42;;
15246;SDS011;7726;48.820;9.248;2022-07-19T11:27:50;3.97;;;2.08;;
15246;SDS011;7726;48.820;9.248;2022-07-19T11:30:17;2.38;;;2.10;;
15246;SDS011;7726;48.820;9.248;2022-07-19T11:32:50;4.00;;;2.58;;
15246;SDS011;7726;48.820;9.248;2022-07-19T11:35:19;2.58;;;2.20;;
15246;SDS011;7726;48.820;9.248;2022-07-19T11:37:46;1.98;;;1.85;;
15246;SDS011;7726;48.820;9.248;2022-07-19T11:40:14;3.08;;;2.15;;
15246;SDS011;7726;48.820;9.248;2022-07-19T11:42:41;3.17;;;2.25;;
15246;SDS011;7726;48.820;9.248;2022-07-19T11:45:09;2.65;;;1.92;;
15246;SDS011;7726;48.820;9.248;2022-07-19T11:47:37;4.32;;;3.15;;
15246;SDS011;7726;48.820;9.248;2022-07-19T11:50:07;3.88;;;2.53;;
15246;SDS011;7726;48.820;9.248;2022-07-19T11:52:46;3.78;;;2.10;;
15246;SDS011;7726;48.820;9.248;2022-07-19T11:55:14;2.75;;;2.25;;
15246;SDS011;7726;48.820;9.248;2022-07-19T11:57:41;3.63;;;2.83;;
15246;SDS011;7726;48.820;9.248;2022-07-19T12:00:09;2.63;;;1.90;;
15246;SDS011;7726;48.820;9.248;2022-07-19T12:02:54;3.10;;;2.30;;
15246;SDS011;7726;48.820;9.248;2022-07-19T12:05:22;5.55;;;2.20;;
15246;SDS011;7726;48.820;9.248;2022-07-19T12:07:51;2.10;;;1.90;;
15246;SDS011;7726;48.820;9.248;2022-07-19T12:13:15;4.45;;;2.50;;
15246;SDS011;7726;48.820;9.248;2022-07-19T12:15:46;2.80;;;2.25;;
15246;SDS011;7726;48.820;9.248;2022-07-19T12:18:14;4.93;;;2.78;;
15246;SDS011;7726;48.820;9.248;2022-07-19T12:20:42;5.85;;;2.47;;
15246;SDS011;7726;48.820;9.248;2022-07-19T12:23:12;2.85;;;2.20;;
15246;SDS011;7726;48.820;9.248;2022-07-19T12:25:39;4.43;;;2.50;;
15246;SDS011;7726;48.820;9.248;2022-07-19T12:28:07;3.72;;;2.38;;
15246;SDS011;7726;48.820;9.248;2022-07-19T12:30:34;4.05;;;2.20;;
15246;SDS011;7726;48.820;9.248;2022-07-19T12:33:05;2.80;;;2.60;;
15246;SDS011;7726;48.820;9.248;2022-07-19T12:35:40;4.43;;;2.17;;
15246;SDS011;7726;48.820;9.248;2022-07-19T12:38:08;4.45;;;2.80;;
15246;SDS011;7726;48.820;9.248;2022-07-19T12:40:38;3.30;;;2.63;;
15246;SDS011;7726;48.820;9.248;2022-07-19T12:43:05;7.72;;;3.05;;
15246;SDS011;7726;48.820;9.248;2022-07-19T12:45:36;8.73;;;2.50;;
15246;SDS011;7726;48.820;9.248;2022-07-19T12:48:04;3.53;;;2.25;;
15246;SDS011;7726;48.820;9.248;2022-07-19T12:50:32;3.00;;;2.20;;
15246;SDS011;7726;48.820;9.248;2022-07-19T12:53:00;2.50;;;2.30;;
15246;SDS011;7726;48.820;9.248;2022-07-19T12:55:29;4.65;;;2.42;;
15246;SDS011;7726;48.820;9.248;2022-07-19T12:57:58;2.47;;;2.28;;
15246;SDS011;7726;48.820;9.248;2022-07-19T13:00:26;5.80;;;2.83;;
15246;SDS011;7726;48.820;9.248;2022-07-19T13:02:54;2.83;;;2.47;;
15246;SDS011;7726;48.820;9.248;2022-07-19T13:05:21;4.43;;;2.38;;
15246;SDS011;7726;48.820;9.248;2022-07-19T13:07:49;7.68;;;3.10;;
15246;SDS011;7726;48.820;9.248;2022-07-19T13:10:16;4.53;;;2.70;;
15246;SDS011;7726;48.820;9.248;2022-07-19T13:12:43;5.38;;;2.83;;
15246;SDS011;7726;48.820;9.248;2022-07-19T13:15:12;3.70;;;2.58;;
15246;SDS011;7726;48.820;9.248;2022-07-19T13:17:40;5.13;;;2.95;;
15246;SDS011;7726;48.820;9.248;2022-07-19T13:20:07;5.60;;;3.28;;
15246;SDS011;7726;48.820;9.248;2022-07-19T13:22:35;5.07;;;3.00;;
15246;SDS011;7726;48.820;9.248;2022-07-19T13:25:03;3.15;;;2.58;;
15246;SDS011;7726;48.820;9.248;2022-07-19T13:27:30;4.22;;;2.70;;
15246;SDS011;7726;48.820;9.248;2022-07-19T13:29:58;3.72;;;2.70;;
15246;SDS011;7726;48.820;9.248;2022-07-19T13:32:26;2.75;;;2.40;;
15246;SDS011;7726;48.820;9.248;2022-07-19T13:34:54;5.22;;;2.75;;
15246;SDS011;7726;48.820;9.248;2022-07-19T13:37:21;2.85;;;2.55;;
15246;SDS011;7726;48.820;9.248;2022-07-19T13:39:48;3.08;;;2.50;;
15246;SDS011;7726;48.820;9.248;2022-07-19T13:42:15;3.92;;;2.65;;
15246;SDS011;7726;48.820;9.248;2022-07-19T13:44:43;3.63;;;2.17;;
15246;SDS011;7726;48.820;9.248;2022-07-19T13:47:10;2.83;;;2.40;;
15246;SDS011;7726;48.820;9.248;2022-07-19T13:49:38;3.55;;;2.40;;
15246;SDS011;7726;48.820;9.248;2022-07-19T13:52:05;3.75;;;2.60;;
15246;SDS011;7726;48.820;9.248;2022-07-19T13:54:33;4.60;;;2.85;;
15246;SDS011;7726;48.820;9.248;2022-07-19T13:57:00;2.78;;;2.50;;
15246;SDS011;7726;48.820;9.248;2022-07-19T13:59:27;4.00;;;2.85;;
15246;SDS011;7726;48.820;9.248;2022-07-19T14:01:56;3.17;;;2.72;;
15246;SDS011;7726;48.820;9.248;2022-07-19T14:04:23;5.57;;;2.75;;
15246;SDS011;7726;48.820;9.248;2022-07-19T14:06:51;5.75;;;2.67;;
15246;SDS011;7726;48.820;9.248;2022-07-19T14:09:19;7.93;;;2.40;;
15246;SDS011;7726;48.820;9.248;2022-07-19T14:11:46;4.32;;;2.60;;
15246;SDS011;7726;48.820;9.248;2022-07-19T14:14:13;3.03;;;2.50;;
15246;SDS011;7726;48.820;9.248;2022-07-19T14:16:40;5.70;;;2.80;;
15246;SDS011;7726;48.820;9.248;2022-07-19T14:19:08;3.22;;;2.53;;
15246;SDS011;7726;48.820;9.248;2022-07-19T14:21:35;3.92;;;2.13;;
15246;SDS011;7726;48.820;9.248;2022-07-19T14:24:04;3.53;;;2.45;;
15246;SDS011;7726;48.820;9.248;2022-07-19T14:26:33;4.10;;;2.33;;
15246;SDS011;7726;48.820;9.248;2022-07-19T14:29:00;2.33;;;2.17;;
15246;SDS011;7726;48.820;9.248;2022-07-19T14:31:28;5.65;;;2.47;;
15246;SDS011;7726;48.820;9.248;2022-07-19T14:33:55;5.43;;;2.88;;
15246;SDS011;7726;48.820;9.248;2022-07-19T14:36:22;6.68;;;2.42;;
15246;SDS011;7726;48.820;9.248;2022-07-19T14:38:49;3.70;;;2.08;;
15246;SDS011;7726;48.820;9.248;2022-07-19T14:41:18;2.58;;;2.30;;
15246;SDS011;7726;48.820;9.248;2022-07-19T14:43:45;3.28;;;2.28;;
15246;SDS011;7726;48.820;9.248;2022-07-19T14:46:12;7.00;;;2.60;;
15246;SDS011;7726;48.820;9.248;2022-07-19T14:48:39;4.00;;;2.40;;
15246;SDS011;7726;48.820;9.248;2022-07-19T14:51:07;3.38;;;2.40;;
15246;SDS011;7726;48.820;9.248;2022-07-19T14:53:34;1.98;;;1.88;;
15246;SDS011;7726;48.820;9.248;2022-07-19T14:56:01;5.82;;;2.17;;
15246;SDS011;7726;48.820;9.248;2022-07-19T14:58:29;4.38;;;2.50;;
15246;SDS011;7726;48.820;9.248;2022-07-19T15:00:57;4.72;;;2.67;;
15246;SDS011;7726;48.820;9.248;2022-07-19T15:03:24;2.85;;;2.30;;
15246;SDS011;7726;48.820;9.248;2022-07-19T15:05:51;3.63;;;2.28;;
15246;SDS011;7726;48.820;9.248;2022-07-19T15:08:18;4.47;;;2.20;;
15246;SDS011;7726;48.820;9.248;2022-07-19T15:10:45;2.75;;;2.55;;
15246;SDS011;7726;48.820;9.248;2022-07-19T15:13:13;2.53;;;2.25;;
15246;SDS011;7726;48.820;9.248;2022-07-19T15:15:42;3.45;;;2.35;;
15246;SDS011;7726;48.820;9.248;2022-07-19T15:18:09;3.65;;;2.55;;
15246;SDS011;7726;48.820;9.248;2022-07-19T15:20:36;4.13;;;2.15;;